sensor_id;sensor_type;location;lat;lon;timestamp;P1;durP1;ratioP1;P2;durP2;ratioP2
7128;SDS011;3606;52.930;8.644;2023-08-30T00:00:08;8.37;;;6.63;;
7128;SDS011;3606;52.930;8.644;2023-08-30T00:02:35;7.47;;;6.77;;
7128;SDS011;3606;52.930;8.644;2023-08-30T00:05:02;7.53;;;6.73;;
7128;SDS011;3606;52.930;8.644;2023-08-30T00:07:28;13.97;;;7.33;;
7128;SDS011;3606;52.930;8.644;2023-08-30T00:09:54;8.60;;;7.47;;
7128;SDS011;3606;52.930;8.644;2023-08-30T00:12:20;8.27;;;7.00;;
7128;SDS011;3606;52.930;8.644;2023-08-30T00:14:46;7.37;;;6.67;;
7128;SDS011;3606;52.930;8.644;2023-08-30T00:17:13;12.00;;;10.17;;
7128;SDS011;3606;52.930;8.644;2023-08-30T00:19:39;20.17;;;14.30;;
7128;SDS011;3606;52.930;8.644;2023-08-30T00:22:04;15.47;;;12.50;;
7128;SDS011;3606;52.930;8.644;2023-08-30T00:24:32;16.20;;;12.13;;
7128;SDS011;3606;52.930;8.644;2023-08-30T00:26:58;11.13;;;9.80;;
7128;SDS011;3606;52.930;8.644;2023-08-30T00:29:24;12.40;;;9.63;;
7128;SDS011;3606;52.930;8.644;2023-08-30T00:31:50;11.20;;;8.70;;
7128;SDS011;3606;52.930;8.644;2023-08-30T00:34:15;10.20;;;9.07;;
7128;SDS011;3606;52.930;8.644;2023-08-30T00:36:41;11.17;;;9.37;;
7128;SDS011;3606;52.930;8.644;2023-08-30T00:39:06;10.50;;;9.40;;
7128;SDS011;3606;52.930;8.644;2023-08-30T00:41:33;10.77;;;9.63;;
7128;SDS011;3606;52.930;8.644;2023-08-30T00:43:59;10.23;;;9.13;;
7128;SDS011;3606;52.930;8.644;2023-08-30T00:46:25;9.87;;;8.87;;
7128;SDS011;3606;52.930;8.644;2023-08-30T00:48:51;9.30;;;8.30;;
7128;SDS011;3606;52.930;8.644;2023-08-30T00:51:16;7.27;;;5.90;;
7128;SDS011;3606;52.930;8.644;2023-08-30T00:53:42;7.80;;;5.47;;
7128;SDS011;3606;52.930;8.644;2023-08-30T00:56:09;5.83;;;5.23;;
7128;SDS011;3606;52.930;8.644;2023-08-30T00:58:35;6.37;;;5.63;;
7128;SDS011;3606;52.930;8.644;2023-08-30T01:01:01;7.67;;;6.87;;
7128;SDS011;3606;52.930;8.644;2023-08-30T01:03:27;12.63;;;9.30;;
7128;SDS011;3606;52.930;8.644;2023-08-30T01:05:52;9.60;;;8.60;;
7128;SDS011;3606;52.930;8.644;2023-08-30T01:08:18;10.37;;;8.37;;
7128;SDS011;3606;52.930;8.644;2023-08-30T01:10:49;9.43;;;7.40;;
7128;SDS011;3606;52.930;8.644;2023-08-30T01:13:27;7.87;;;7.07;;
7128;SDS011;3606;52.930;8.644;2023-08-30T01:15:56;8.27;;;7.07;;
7128;SDS011;3606;52.930;8.644;2023-08-30T01:18:25;9.60;;;8.43;;
7128;SDS011;3606;52.930;8.644;2023-08-30T01:20:53;9.07;;;8.13;;
7128;SDS011;3606;52.930;8.644;2023-08-30T01:28:39;9.00;;;7.53;;
7128;SDS011;3606;52.930;8.644;2023-08-30T01:31:06;9.27;;;8.10;;
7128;SDS011;3606;52.930;8.644;2023-08-30T01:33:34;9.93;;;8.10;;
7128;SDS011;3606;52.930;8.644;2023-08-30T01:36:01;9.33;;;8.37;;
7128;SDS011;3606;52.930;8.644;2023-08-30T01:38:28;12.70;;;7.57;;
7128;SDS011;3606;52.930;8.644;2023-08-30T01:40:56;9.23;;;7.70;;
7128;SDS011;3606;52.930;8.644;2023-08-30T01:43:25;9.53;;;7.13;;
7128;SDS011;3606;52.930;8.644;2023-08-30T01:45:53;8.97;;;8.07;;
7128;SDS011;3606;52.930;8.644;2023-08-30T01:48:21;8.93;;;8.03;;
7128;SDS011;3606;52.930;8.644;2023-08-30T01:50:47;10.17;;;8.27;;
7128;SDS011;3606;52.930;8.644;2023-08-30T01:53:13;10.57;;;9.20;;
7128;SDS011;3606;52.930;8.644;2023-08-30T01:55:40;9.77;;;8.60;;
7128;SDS011;3606;52.930;8.644;2023-08-30T01:58:07;11.23;;;8.67;;
7128;SDS011;3606;52.930;8.644;2023-08-30T02:00:34;11.47;;;8.70;;
7128;SDS011;3606;52.930;8.644;2023-08-30T02:03:06;10.03;;;7.93;;
7128;SDS011;3606;52.930;8.644;2023-08-30T02:05:50;11.50;;;9.33;;
7128;SDS011;3606;52.930;8.644;2023-08-30T02:08:45;9.30;;;8.40;;
7128;SDS011;3606;52.930;8.644;2023-08-30T02:11:25;9.80;;;8.87;;
7128;SDS011;3606;52.930;8.644;2023-08-30T02:13:52;10.80;;;9.37;;
7128;SDS011;3606;52.930;8.644;2023-08-30T02:16:22;14.77;;;9.90;;
7128;SDS011;3606;52.930;8.644;2023-08-30T02:18:50;10.40;;;8.70;;
7128;SDS011;3606;52.930;8.644;2023-08-30T02:21:16;10.40;;;9.30;;
7128;SDS011;3606;52.930;8.644;2023-08-30T02:23:42;11.67;;;10.43;;
7128;SDS011;3606;52.930;8.644;2023-08-30T02:26:08;13.63;;;9.93;;
7128;SDS011;3606;52.930;8.644;2023-08-30T02:28:33;11.77;;;9.93;;
7128;SDS011;3606;52.930;8.644;2023-08-30T02:30:59;13.27;;;10.23;;
7128;SDS011;3606;52.930;8.644;2023-08-30T02:33:24;12.10;;;10.10;;
7128;SDS011;3606;52.930;8.644;2023-08-30T02:35:50;11.30;;;10.20;;
7128;SDS011;3606;52.930;8.644;2023-08-30T02:38:16;12.33;;;9.60;;
7128;SDS011;3606;52.930;8.644;2023-08-30T02:40:42;16.03;;;10.63;;
7128;SDS011;3606;52.930;8.644;2023-08-30T02:43:08;11.53;;;10.33;;
7128;SDS011;3606;52.930;8.644;2023-08-30T02:45:33;12.13;;;10.93;;
7128;SDS011;3606;52.930;8.644;2023-08-30T02:47:59;14.77;;;10.77;;
7128;SDS011;3606;52.930;8.644;2023-08-30T02:50:25;12.90;;;11.60;;
7128;SDS011;3606;52.930;8.644;2023-08-30T02:52:50;13.33;;;11.57;;
7128;SDS011;3606;52.930;8.644;2023-08-30T02:55:16;13.93;;;11.90;;
7128;SDS011;3606;52.930;8.644;2023-08-30T02:57:42;12.27;;;11.00;;
7128;SDS011;3606;52.930;8.644;2023-08-30T03:00:07;14.67;;;11.33;;
7128;SDS011;3606;52.930;8.644;2023-08-30T03:02:33;12.97;;;11.60;;
7128;SDS011;3606;52.930;8.644;2023-08-30T03:04:59;13.53;;;12.07;;
7128;SDS011;3606;52.930;8.644;2023-08-30T03:07:25;14.63;;;10.93;;
7128;SDS011;3606;52.930;8.644;2023-08-30T03:09:53;13.13;;;11.50;;
7128;SDS011;3606;52.930;8.644;2023-08-30T03:12:19;13.37;;;12.07;;
7128;SDS011;3606;52.930;8.644;2023-08-30T03:14:45;12.93;;;11.43;;
7128;SDS011;3606;52.930;8.644;2023-08-30T03:17:11;18.40;;;11.77;;
7128;SDS011;3606;52.930;8.644;2023-08-30T03:19:36;13.43;;;11.30;;
7128;SDS011;3606;52.930;8.644;2023-08-30T03:22:02;13.17;;;11.77;;
7128;SDS011;3606;52.930;8.644;2023-08-30T03:24:28;14.00;;;12.57;;
7128;SDS011;3606;52.930;8.644;2023-08-30T03:26:53;13.33;;;11.93;;
7128;SDS011;3606;52.930;8.644;2023-08-30T03:29:19;14.90;;;12.17;;
7128;SDS011;3606;52.930;8.644;2023-08-30T03:31:44;16.03;;;12.93;;
7128;SDS011;3606;52.930;8.644;2023-08-30T03:34:10;13.43;;;12.00;;
7128;SDS011;3606;52.930;8.644;2023-08-30T03:36:36;15.37;;;13.37;;
7128;SDS011;3606;52.930;8.644;2023-08-30T03:39:02;15.37;;;12.90;;
7128;SDS011;3606;52.930;8.644;2023-08-30T03:41:28;15.77;;;13.30;;
7128;SDS011;3606;52.930;8.644;2023-08-30T03:43:54;14.93;;;12.30;;
7128;SDS011;3606;52.930;8.644;2023-08-30T03:46:19;16.30;;;12.77;;
7128;SDS011;3606;52.930;8.644;2023-08-30T03:48:45;16.77;;;13.50;;
7128;SDS011;3606;52.930;8.644;2023-08-30T03:51:10;18.50;;;14.07;;
7128;SDS011;3606;52.930;8.644;2023-08-30T03:53:36;15.40;;;13.80;;
7128;SDS011;3606;52.930;8.644;2023-08-30T03:56:02;15.23;;;13.40;;
7128;SDS011;3606;52.930;8.644;2023-08-30T03:58:28;15.77;;;13.40;;
7128;SDS011;3606;52.930;8.644;2023-08-30T04:00:54;14.83;;;12.37;;
7128;SDS011;3606;52.930;8.644;2023-08-30T04:03:20;13.30;;;11.93;;
7128;SDS011;3606;52.930;8.644;2023-08-30T04:05:45;15.40;;;13.30;;
7128;SDS011;3606;52.930;8.644;2023-08-30T04:08:11;13.43;;;12.03;;
7128;SDS011;3606;52.930;8.644;2023-08-30T04:10:37;14.93;;;13.33;;
7128;SDS011;3606;52.930;8.644;2023-08-30T04:13:04;14.93;;;13.40;;
7128;SDS011;3606;52.930;8.644;2023-08-30T04:15:37;16.67;;;13.07;;
7128;SDS011;3606;52.930;8.644;2023-08-30T04:18:04;16.30;;;13.83;;
7128;SDS011;3606;52.930;8.644;2023-08-30T04:20:31;16.50;;;14.67;;
7128;SDS011;3606;52.930;8.644;2023-08-30T04:22:57;15.97;;;13.97;;
7128;SDS011;3606;52.930;8.644;2023-08-30T04:25:26;19.10;;;14.00;;
7128;SDS011;3606;52.930;8.644;2023-08-30T04:27:52;14.77;;;13.20;;
7128;SDS011;3606;52.930;8.644;2023-08-30T04:30:18;16.87;;;14.40;;
7128;SDS011;3606;52.930;8.644;2023-08-30T04:32:43;17.23;;;15.43;;
7128;SDS011;3606;52.930;8.644;2023-08-30T04:35:09;19.80;;;16.13;;
7128;SDS011;3606;52.930;8.644;2023-08-30T04:37:35;17.73;;;15.57;;
7128;SDS011;3606;52.930;8.644;2023-08-30T04:40:03;17.33;;;15.30;;
7128;SDS011;3606;52.930;8.644;2023-08-30T04:42:29;16.37;;;13.60;;
7128;SDS011;3606;52.930;8.644;2023-08-30T04:44:54;19.73;;;15.37;;
7128;SDS011;3606;52.930;8.644;2023-08-30T04:47:21;16.83;;;15.03;;
7128;SDS011;3606;52.930;8.644;2023-08-30T04:49:50;19.77;;;15.97;;
7128;SDS011;3606;52.930;8.644;2023-08-30T04:52:16;16.10;;;14.17;;
7128;SDS011;3606;52.930;8.644;2023-08-30T04:54:42;17.53;;;15.40;;
7128;SDS011;3606;52.930;8.644;2023-08-30T04:57:08;19.07;;;15.23;;
7128;SDS011;3606;52.930;8.644;2023-08-30T04:59:33;17.93;;;15.37;;
7128;SDS011;3606;52.930;8.644;2023-08-30T05:01:59;18.03;;;14.87;;
7128;SDS011;3606;52.930;8.644;2023-08-30T05:04:25;20.37;;;14.27;;
7128;SDS011;3606;52.930;8.644;2023-08-30T05:06:50;17.30;;;14.57;;
7128;SDS011;3606;52.930;8.644;2023-08-30T05:09:16;15.63;;;13.37;;
7128;SDS011;3606;52.930;8.644;2023-08-30T05:11:41;17.70;;;13.53;;
7128;SDS011;3606;52.930;8.644;2023-08-30T05:14:07;15.43;;;13.17;;
7128;SDS011;3606;52.930;8.644;2023-08-30T05:16:37;15.37;;;13.43;;
7128;SDS011;3606;52.930;8.644;2023-08-30T05:19:03;17.70;;;14.03;;
7128;SDS011;3606;52.930;8.644;2023-08-30T05:21:28;19.47;;;14.83;;
7128;SDS011;3606;52.930;8.644;2023-08-30T05:23:54;20.67;;;14.50;;
7128;SDS011;3606;52.930;8.644;2023-08-30T05:26:19;15.77;;;13.27;;
7128;SDS011;3606;52.930;8.644;2023-08-30T05:28:45;15.90;;;13.30;;
7128;SDS011;3606;52.930;8.644;2023-08-30T05:31:11;16.33;;;14.63;;
7128;SDS011;3606;52.930;8.644;2023-08-30T05:33:36;19.13;;;15.03;;
7128;SDS011;3606;52.930;8.644;2023-08-30T05:36:02;19.43;;;15.30;;
7128;SDS011;3606;52.930;8.644;2023-08-30T05:38:27;16.67;;;14.90;;
7128;SDS011;3606;52.930;8.644;2023-08-30T05:40:53;17.73;;;14.83;;
7128;SDS011;3606;52.930;8.644;2023-08-30T05:43:18;18.70;;;14.60;;
7128;SDS011;3606;52.930;8.644;2023-08-30T05:45:44;16.63;;;14.30;;
7128;SDS011;3606;52.930;8.644;2023-08-30T05:48:09;17.63;;;14.50;;
7128;SDS011;3606;52.930;8.644;2023-08-30T05:50:35;17.03;;;15.23;;
7128;SDS011;3606;52.930;8.644;2023-08-30T05:53:01;20.20;;;16.13;;
7128;SDS011;3606;52.930;8.644;2023-08-30T05:55:28;19.93;;;15.20;;
7128;SDS011;3606;52.930;8.644;2023-08-30T05:57:53;16.83;;;14.60;;
7128;SDS011;3606;52.930;8.644;2023-08-30T06:00:19;22.07;;;15.90;;
7128;SDS011;3606;52.930;8.644;2023-08-30T06:02:45;21.13;;;16.07;;
7128;SDS011;3606;52.930;8.644;2023-08-30T06:05:10;20.97;;;16.90;;
7128;SDS011;3606;52.930;8.644;2023-08-30T06:07:36;17.73;;;14.27;;
7128;SDS011;3606;52.930;8.644;2023-08-30T06:10:02;17.97;;;15.23;;
7128;SDS011;3606;52.930;8.644;2023-08-30T06:12:27;18.17;;;14.47;;
7128;SDS011;3606;52.930;8.644;2023-08-30T06:14:53;19.27;;;13.77;;
7128;SDS011;3606;52.930;8.644;2023-08-30T06:17:19;19.00;;;13.57;;
7128;SDS011;3606;52.930;8.644;2023-08-30T06:19:45;16.27;;;13.53;;
7128;SDS011;3606;52.930;8.644;2023-08-30T06:22:11;15.50;;;13.20;;
7128;SDS011;3606;52.930;8.644;2023-08-30T06:24:37;16.57;;;12.67;;
7128;SDS011;3606;52.930;8.644;2023-08-30T06:27:03;15.43;;;12.67;;
7128;SDS011;3606;52.930;8.644;2023-08-30T06:29:28;15.17;;;12.67;;
7128;SDS011;3606;52.930;8.644;2023-08-30T06:31:54;13.73;;;12.13;;
7128;SDS011;3606;52.930;8.644;2023-08-30T06:34:20;14.00;;;12.50;;
7128;SDS011;3606;52.930;8.644;2023-08-30T06:36:45;14.43;;;12.33;;
7128;SDS011;3606;52.930;8.644;2023-08-30T06:39:11;14.00;;;12.50;;
7128;SDS011;3606;52.930;8.644;2023-08-30T06:41:36;13.40;;;12.00;;
7128;SDS011;3606;52.930;8.644;2023-08-30T06:44:02;13.33;;;12.03;;
7128;SDS011;3606;52.930;8.644;2023-08-30T06:46:29;14.33;;;12.47;;
7128;SDS011;3606;52.930;8.644;2023-08-30T06:48:54;15.60;;;12.73;;
7128;SDS011;3606;52.930;8.644;2023-08-30T06:51:20;12.20;;;11.00;;
7128;SDS011;3606;52.930;8.644;2023-08-30T06:53:45;15.40;;;11.40;;
7128;SDS011;3606;52.930;8.644;2023-08-30T06:56:12;14.93;;;10.10;;
7128;SDS011;3606;52.930;8.644;2023-08-30T06:58:38;11.77;;;10.20;;
7128;SDS011;3606;52.930;8.644;2023-08-30T07:01:03;12.33;;;10.47;;
7128;SDS011;3606;52.930;8.644;2023-08-30T07:03:29;15.03;;;10.50;;
7128;SDS011;3606;52.930;8.644;2023-08-30T07:05:55;15.37;;;11.13;;
7128;SDS011;3606;52.930;8.644;2023-08-30T07:08:20;11.30;;;9.93;;
7128;SDS011;3606;52.930;8.644;2023-08-30T07:10:46;13.30;;;10.77;;
7128;SDS011;3606;52.930;8.644;2023-08-30T07:13:12;11.40;;;10.20;;
7128;SDS011;3606;52.930;8.644;2023-08-30T07:15:41;12.80;;;10.17;;
7128;SDS011;3606;52.930;8.644;2023-08-30T07:18:08;13.37;;;10.30;;
7128;SDS011;3606;52.930;8.644;2023-08-30T07:20:34;14.07;;;9.90;;
7128;SDS011;3606;52.930;8.644;2023-08-30T07:23:01;11.83;;;9.73;;
7128;SDS011;3606;52.930;8.644;2023-08-30T07:25:27;14.23;;;9.57;;
7128;SDS011;3606;52.930;8.644;2023-08-30T07:27:54;10.47;;;9.37;;
7128;SDS011;3606;52.930;8.644;2023-08-30T07:30:19;10.20;;;9.13;;
7128;SDS011;3606;52.930;8.644;2023-08-30T07:32:45;9.80;;;8.77;;
7128;SDS011;3606;52.930;8.644;2023-08-30T07:35:10;11.00;;;9.53;;
7128;SDS011;3606;52.930;8.644;2023-08-30T07:37:36;11.37;;;9.57;;
7128;SDS011;3606;52.930;8.644;2023-08-30T07:40:02;10.57;;;8.63;;
7128;SDS011;3606;52.930;8.644;2023-08-30T07:42:31;9.83;;;8.80;;
7128;SDS011;3606;52.930;8.644;2023-08-30T07:44:56;10.23;;;8.93;;
7128;SDS011;3606;52.930;8.644;2023-08-30T07:47:22;12.23;;;8.97;;
7128;SDS011;3606;52.930;8.644;2023-08-30T07:49:48;9.47;;;7.77;;
7128;SDS011;3606;52.930;8.644;2023-08-30T07:52:13;9.70;;;8.63;;
7128;SDS011;3606;52.930;8.644;2023-08-30T07:54:39;9.63;;;8.33;;
7128;SDS011;3606;52.930;8.644;2023-08-30T07:57:06;9.47;;;8.30;;
7128;SDS011;3606;52.930;8.644;2023-08-30T07:59:35;10.07;;;8.93;;
7128;SDS011;3606;52.930;8.644;2023-08-30T08:02:02;10.03;;;8.73;;
7128;SDS011;3606;52.930;8.644;2023-08-30T08:04:28;8.77;;;7.87;;
7128;SDS011;3606;52.930;8.644;2023-08-30T08:06:54;11.03;;;8.37;;
7128;SDS011;3606;52.930;8.644;2023-08-30T08:09:20;8.90;;;7.57;;
7128;SDS011;3606;52.930;8.644;2023-08-30T08:11:46;9.07;;;7.10;;
7128;SDS011;3606;52.930;8.644;2023-08-30T08:14:15;10.53;;;7.57;;
7128;SDS011;3606;52.930;8.644;2023-08-30T08:16:40;9.23;;;7.33;;
7128;SDS011;3606;52.930;8.644;2023-08-30T08:19:06;6.70;;;6.00;;
7128;SDS011;3606;52.930;8.644;2023-08-30T08:21:33;8.43;;;6.88;;
7128;SDS011;3606;52.930;8.644;2023-08-30T08:23:59;8.10;;;7.00;;
7128;SDS011;3606;52.930;8.644;2023-08-30T08:26:25;6.97;;;6.28;;
7128;SDS011;3606;52.930;8.644;2023-08-30T08:28:50;13.38;;;6.40;;
7128;SDS011;3606;52.930;8.644;2023-08-30T08:31:16;6.13;;;5.53;;
7128;SDS011;3606;52.930;8.644;2023-08-30T08:33:42;7.40;;;6.32;;
7128;SDS011;3606;52.930;8.644;2023-08-30T08:36:08;7.33;;;6.53;;
7128;SDS011;3606;52.930;8.644;2023-08-30T08:38:34;7.50;;;6.30;;
7128;SDS011;3606;52.930;8.644;2023-08-30T08:41:04;8.03;;;6.50;;
7128;SDS011;3606;52.930;8.644;2023-08-30T08:43:32;8.07;;;5.97;;
7128;SDS011;3606;52.930;8.644;2023-08-30T08:46:00;7.73;;;6.40;;
7128;SDS011;3606;52.930;8.644;2023-08-30T08:48:26;8.63;;;6.93;;
7128;SDS011;3606;52.930;8.644;2023-08-30T08:50:53;7.83;;;6.90;;
7128;SDS011;3606;52.930;8.644;2023-08-30T08:53:21;9.17;;;7.17;;
7128;SDS011;3606;52.930;8.644;2023-08-30T08:55:47;8.73;;;7.03;;
7128;SDS011;3606;52.930;8.644;2023-08-30T08:58:14;9.77;;;6.77;;
7128;SDS011;3606;52.930;8.644;2023-08-30T09:00:43;10.40;;;7.10;;
7128;SDS011;3606;52.930;8.644;2023-08-30T09:03:09;7.37;;;6.67;;
7128;SDS011;3606;52.930;8.644;2023-08-30T09:05:39;7.63;;;6.30;;
7128;SDS011;3606;52.930;8.644;2023-08-30T09:08:06;8.88;;;6.80;;
7128;SDS011;3606;52.930;8.644;2023-08-30T09:10:32;8.32;;;7.25;;
7128;SDS011;3606;52.930;8.644;2023-08-30T09:12:58;8.77;;;6.97;;
7128;SDS011;3606;52.930;8.644;2023-08-30T09:15:34;8.07;;;6.65;;
7128;SDS011;3606;52.930;8.644;2023-08-30T09:18:03;7.38;;;6.57;;
7128;SDS011;3606;52.930;8.644;2023-08-30T09:20:29;8.93;;;6.90;;
7128;SDS011;3606;52.930;8.644;2023-08-30T09:22:55;8.35;;;6.60;;
7128;SDS011;3606;52.930;8.644;2023-08-30T09:25:24;12.43;;;8.60;;
7128;SDS011;3606;52.930;8.644;2023-08-30T09:27:56;11.48;;;8.73;;
7128;SDS011;3606;52.930;8.644;2023-08-30T09:30:24;15.27;;;9.90;;
7128;SDS011;3606;52.930;8.644;2023-08-30T09:32:50;12.52;;;9.02;;
7128;SDS011;3606;52.930;8.644;2023-08-30T09:35:16;11.93;;;9.13;;
7128;SDS011;3606;52.930;8.644;2023-08-30T09:37:44;14.38;;;9.70;;
7128;SDS011;3606;52.930;8.644;2023-08-30T09:40:10;12.88;;;10.35;;
7128;SDS011;3606;52.930;8.644;2023-08-30T09:42:40;13.07;;;9.32;;
7128;SDS011;3606;52.930;8.644;2023-08-30T09:48:04;14.50;;;10.67;;
7128;SDS011;3606;52.930;8.644;2023-08-30T09:50:33;16.53;;;11.23;;
7128;SDS011;3606;52.930;8.644;2023-08-30T09:53:06;17.27;;;11.43;;
7128;SDS011;3606;52.930;8.644;2023-08-30T09:55:36;13.30;;;10.83;;
7128;SDS011;3606;52.930;8.644;2023-08-30T09:58:02;15.27;;;11.27;;
7128;SDS011;3606;52.930;8.644;2023-08-30T10:00:31;18.70;;;10.87;;
7128;SDS011;3606;52.930;8.644;2023-08-30T10:02:58;14.13;;;10.27;;
7128;SDS011;3606;52.930;8.644;2023-08-30T10:05:25;11.43;;;9.10;;
7128;SDS011;3606;52.930;8.644;2023-08-30T10:07:51;13.35;;;10.13;;
7128;SDS011;3606;52.930;8.644;2023-08-30T10:10:18;12.05;;;10.02;;
7128;SDS011;3606;52.930;8.644;2023-08-30T10:12:45;13.93;;;10.43;;
7128;SDS011;3606;52.930;8.644;2023-08-30T10:15:11;11.43;;;9.53;;
7128;SDS011;3606;52.930;8.644;2023-08-30T10:17:37;13.20;;;9.63;;
7128;SDS011;3606;52.930;8.644;2023-08-30T10:20:06;12.07;;;9.50;;
7128;SDS011;3606;52.930;8.644;2023-08-30T10:22:34;13.60;;;10.03;;
7128;SDS011;3606;52.930;8.644;2023-08-30T10:25:03;15.00;;;10.60;;
7128;SDS011;3606;52.930;8.644;2023-08-30T10:27:31;11.90;;;10.13;;
7128;SDS011;3606;52.930;8.644;2023-08-30T10:30:01;11.43;;;9.47;;
7128;SDS011;3606;52.930;8.644;2023-08-30T10:32:29;15.97;;;9.47;;
7128;SDS011;3606;52.930;8.644;2023-08-30T10:34:55;11.80;;;9.40;;
7128;SDS011;3606;52.930;8.644;2023-08-30T10:37:24;12.60;;;8.50;;
7128;SDS011;3606;52.930;8.644;2023-08-30T10:39:51;9.50;;;8.50;;
7128;SDS011;3606;52.930;8.644;2023-08-30T10:42:21;9.77;;;7.00;;
7128;SDS011;3606;52.930;8.644;2023-08-30T10:45:01;9.70;;;7.60;;
7128;SDS011;3606;52.930;8.644;2023-08-30T10:47:29;8.80;;;7.73;;
7128;SDS011;3606;52.930;8.644;2023-08-30T10:49:57;10.40;;;8.43;;
7128;SDS011;3606;52.930;8.644;2023-08-30T10:52:25;10.53;;;8.30;;
7128;SDS011;3606;52.930;8.644;2023-08-30T10:54:52;11.57;;;7.83;;
7128;SDS011;3606;52.930;8.644;2023-08-30T10:57:21;11.80;;;8.47;;
7128;SDS011;3606;52.930;8.644;2023-08-30T11:02:38;10.27;;;8.43;;
7128;SDS011;3606;52.930;8.644;2023-08-30T11:05:08;9.80;;;8.57;;
7128;SDS011;3606;52.930;8.644;2023-08-30T11:07:33;11.00;;;8.63;;
7128;SDS011;3606;52.930;8.644;2023-08-30T11:09:59;10.27;;;8.60;;
7128;SDS011;3606;52.930;8.644;2023-08-30T11:12:25;12.13;;;8.40;;
7128;SDS011;3606;52.930;8.644;2023-08-30T11:14:53;10.30;;;8.57;;
7128;SDS011;3606;52.930;8.644;2023-08-30T11:17:19;10.10;;;8.60;;
7128;SDS011;3606;52.930;8.644;2023-08-30T11:19:45;12.60;;;9.00;;
7128;SDS011;3606;52.930;8.644;2023-08-30T11:22:14;11.30;;;8.40;;
7128;SDS011;3606;52.930;8.644;2023-08-30T11:24:43;10.77;;;8.43;;
7128;SDS011;3606;52.930;8.644;2023-08-30T11:27:12;9.13;;;7.77;;
7128;SDS011;3606;52.930;8.644;2023-08-30T11:29:40;9.10;;;8.10;;
7128;SDS011;3606;52.930;8.644;2023-08-30T11:32:07;10.10;;;8.00;;
7128;SDS011;3606;52.930;8.644;2023-08-30T11:34:33;11.00;;;8.23;;
7128;SDS011;3606;52.930;8.644;2023-08-30T11:36:58;11.50;;;7.77;;
7128;SDS011;3606;52.930;8.644;2023-08-30T11:39:26;9.43;;;8.07;;
7128;SDS011;3606;52.930;8.644;2023-08-30T11:41:53;14.40;;;8.73;;
7128;SDS011;3606;52.930;8.644;2023-08-30T11:44:19;15.23;;;9.40;;
7128;SDS011;3606;52.930;8.644;2023-08-30T11:46:44;9.47;;;7.53;;
7128;SDS011;3606;52.930;8.644;2023-08-30T11:49:11;8.97;;;7.17;;
7128;SDS011;3606;52.930;8.644;2023-08-30T11:51:37;12.67;;;8.17;;
7128;SDS011;3606;52.930;8.644;2023-08-30T11:54:03;9.73;;;7.33;;
7128;SDS011;3606;52.930;8.644;2023-08-30T11:56:29;7.70;;;6.80;;
7128;SDS011;3606;52.930;8.644;2023-08-30T11:58:55;11.10;;;7.07;;
7128;SDS011;3606;52.930;8.644;2023-08-30T12:01:21;9.30;;;7.73;;
7128;SDS011;3606;52.930;8.644;2023-08-30T12:03:46;9.90;;;7.40;;
7128;SDS011;3606;52.930;8.644;2023-08-30T12:06:15;10.27;;;6.33;;
7128;SDS011;3606;52.930;8.644;2023-08-30T12:08:41;10.23;;;7.17;;
7128;SDS011;3606;52.930;8.644;2023-08-30T12:11:17;10.63;;;7.77;;
7128;SDS011;3606;52.930;8.644;2023-08-30T12:13:44;8.17;;;6.50;;
7128;SDS011;3606;52.930;8.644;2023-08-30T12:16:14;10.87;;;7.07;;
7128;SDS011;3606;52.930;8.644;2023-08-30T12:18:41;8.60;;;6.97;;
7128;SDS011;3606;52.930;8.644;2023-08-30T12:21:07;9.17;;;6.80;;
7128;SDS011;3606;52.930;8.644;2023-08-30T12:23:33;7.80;;;6.30;;
7128;SDS011;3606;52.930;8.644;2023-08-30T12:26:02;11.63;;;6.60;;
7128;SDS011;3606;52.930;8.644;2023-08-30T12:28:30;10.00;;;5.97;;
7128;SDS011;3606;52.930;8.644;2023-08-30T12:30:57;6.57;;;5.87;;
7128;SDS011;3606;52.930;8.644;2023-08-30T12:33:24;9.70;;;7.20;;
7128;SDS011;3606;52.930;8.644;2023-08-30T12:35:53;10.30;;;6.90;;
7128;SDS011;3606;52.930;8.644;2023-08-30T12:38:20;11.77;;;7.93;;
7128;SDS011;3606;52.930;8.644;2023-08-30T12:40:46;10.20;;;7.47;;
7128;SDS011;3606;52.930;8.644;2023-08-30T12:43:14;10.87;;;7.93;;
7128;SDS011;3606;52.930;8.644;2023-08-30T12:45:40;9.67;;;7.87;;
7128;SDS011;3606;52.930;8.644;2023-08-30T12:48:06;15.20;;;8.37;;
7128;SDS011;3606;52.930;8.644;2023-08-30T12:50:33;10.70;;;8.70;;
7128;SDS011;3606;52.930;8.644;2023-08-30T12:53:05;13.83;;;9.67;;
7128;SDS011;3606;52.930;8.644;2023-08-30T12:55:31;11.33;;;8.93;;
7128;SDS011;3606;52.930;8.644;2023-08-30T12:57:57;14.37;;;8.63;;
7128;SDS011;3606;52.930;8.644;2023-08-30T13:00:23;10.30;;;8.10;;
7128;SDS011;3606;52.930;8.644;2023-08-30T13:02:49;11.13;;;8.70;;
7128;SDS011;3606;52.930;8.644;2023-08-30T13:05:15;11.10;;;8.90;;
7128;SDS011;3606;52.930;8.644;2023-08-30T13:07:40;11.93;;;8.97;;
7128;SDS011;3606;52.930;8.644;2023-08-30T13:10:07;10.17;;;9.00;;
7128;SDS011;3606;52.930;8.644;2023-08-30T13:12:33;12.17;;;9.67;;
7128;SDS011;3606;52.930;8.644;2023-08-30T13:14:59;12.07;;;9.53;;
7128;SDS011;3606;52.930;8.644;2023-08-30T13:17:24;10.77;;;9.13;;
7128;SDS011;3606;52.930;8.644;2023-08-30T13:19:50;14.17;;;9.13;;
7128;SDS011;3606;52.930;8.644;2023-08-30T13:22:16;12.57;;;9.20;;
7128;SDS011;3606;52.930;8.644;2023-08-30T13:24:42;11.57;;;9.80;;
7128;SDS011;3606;52.930;8.644;2023-08-30T13:27:08;10.47;;;9.17;;
7128;SDS011;3606;52.930;8.644;2023-08-30T13:29:35;12.60;;;9.97;;
7128;SDS011;3606;52.930;8.644;2023-08-30T13:32:01;12.47;;;9.20;;
7128;SDS011;3606;52.930;8.644;2023-08-30T13:34:26;13.20;;;9.80;;
7128;SDS011;3606;52.930;8.644;2023-08-30T13:36:52;11.53;;;9.33;;
7128;SDS011;3606;52.930;8.644;2023-08-30T13:39:17;11.40;;;9.70;;
7128;SDS011;3606;52.930;8.644;2023-08-30T13:41:45;12.63;;;9.73;;
7128;SDS011;3606;52.930;8.644;2023-08-30T13:44:11;12.10;;;9.97;;
7128;SDS011;3606;52.930;8.644;2023-08-30T13:46:37;13.10;;;10.43;;
7128;SDS011;3606;52.930;8.644;2023-08-30T13:49:03;14.47;;;10.40;;
7128;SDS011;3606;52.930;8.644;2023-08-30T13:51:29;11.73;;;10.03;;
7128;SDS011;3606;52.930;8.644;2023-08-30T13:53:55;14.07;;;11.30;;
7128;SDS011;3606;52.930;8.644;2023-08-30T13:56:21;14.90;;;11.40;;
7128;SDS011;3606;52.930;8.644;2023-08-30T13:58:47;13.00;;;11.20;;
7128;SDS011;3606;52.930;8.644;2023-08-30T14:01:12;17.77;;;11.60;;
7128;SDS011;3606;52.930;8.644;2023-08-30T14:03:38;21.27;;;11.70;;
7128;SDS011;3606;52.930;8.644;2023-08-30T14:06:04;17.90;;;12.60;;
7128;SDS011;3606;52.930;8.644;2023-08-30T14:08:30;17.63;;;12.90;;
7128;SDS011;3606;52.930;8.644;2023-08-30T14:10:55;15.80;;;12.57;;
7128;SDS011;3606;52.930;8.644;2023-08-30T14:13:21;16.90;;;13.27;;
7128;SDS011;3606;52.930;8.644;2023-08-30T14:15:47;19.80;;;14.67;;
7128;SDS011;3606;52.930;8.644;2023-08-30T14:18:13;19.43;;;15.03;;
7128;SDS011;3606;52.930;8.644;2023-08-30T14:20:40;21.97;;;16.17;;
7128;SDS011;3606;52.930;8.644;2023-08-30T14:23:06;23.10;;;16.80;;
7128;SDS011;3606;52.930;8.644;2023-08-30T14:25:32;20.87;;;16.73;;
7128;SDS011;3606;52.930;8.644;2023-08-30T14:27:58;23.97;;;16.73;;
7128;SDS011;3606;52.930;8.644;2023-08-30T14:30:24;21.83;;;17.30;;
7128;SDS011;3606;52.930;8.644;2023-08-30T14:32:50;23.83;;;17.67;;
7128;SDS011;3606;52.930;8.644;2023-08-30T14:35:16;21.20;;;18.27;;
7128;SDS011;3606;52.930;8.644;2023-08-30T14:37:42;21.70;;;18.10;;
7128;SDS011;3606;52.930;8.644;2023-08-30T14:40:08;21.87;;;18.03;;
7128;SDS011;3606;52.930;8.644;2023-08-30T14:42:34;21.80;;;17.30;;
7128;SDS011;3606;52.930;8.644;2023-08-30T14:44:59;20.83;;;16.83;;
7128;SDS011;3606;52.930;8.644;2023-08-30T14:47:25;18.03;;;16.13;;
7128;SDS011;3606;52.930;8.644;2023-08-30T14:49:51;16.97;;;15.23;;
7128;SDS011;3606;52.930;8.644;2023-08-30T14:52:16;19.33;;;15.50;;
7128;SDS011;3606;52.930;8.644;2023-08-30T14:54:42;17.30;;;15.37;;
7128;SDS011;3606;52.930;8.644;2023-08-30T14:57:08;19.67;;;16.67;;
7128;SDS011;3606;52.930;8.644;2023-08-30T14:59:34;19.43;;;15.93;;
7128;SDS011;3606;52.930;8.644;2023-08-30T15:02:00;17.63;;;15.73;;
7128;SDS011;3606;52.930;8.644;2023-08-30T15:04:25;16.80;;;14.77;;